createdAt,value
2018-10-02T00:01:25.902Z,85.86
2018-10-02T00:03:55.872Z,85.61
2018-10-02T00:06:25.503Z,84.83
2018-10-02T00:08:55.129Z,84.94
2018-10-02T00:11:29.599Z,84.74
2018-10-02T00:14:04.661Z,85.64
2018-10-02T00:16:34.309Z,85.32
2018-10-02T00:19:03.963Z,85.77
2018-10-02T00:21:33.640Z,85.78
2018-10-02T00:24:03.309Z,85.09
2018-10-02T00:26:33.007Z,85.60
2018-10-02T00:29:02.708Z,85.54
2018-10-02T00:31:33.987Z,85.44
2018-10-02T00:34:04.771Z,86.23
2018-10-02T00:36:34.445Z,85.86
2018-10-02T00:39:05.397Z,86.20
2018-10-02T00:41:41.707Z,86.14
2018-10-02T00:44:13.250Z,87.01
2018-10-02T00:46:43.325Z,86.82
2018-10-02T00:49:12.957Z,86.73
2018-10-02T00:51:42.625Z,86.98
2018-10-02T00:54:12.347Z,86.21
2018-10-02T00:56:41.980Z,87.25
2018-10-02T00:59:11.692Z,86.22
2018-10-02T01:01:41.748Z,85.85
2018-10-02T01:04:11.453Z,87.06
2018-10-02T01:06:41.085Z,86.90
2018-10-02T01:09:12.760Z,86.20
2018-10-02T01:11:43.276Z,86.31
2018-10-02T01:14:13.301Z,86.03
2018-10-02T01:16:43.461Z,86.44
2018-10-02T01:19:13.113Z,86.76
2018-10-02T01:21:42.725Z,86.39
2018-10-02T01:24:12.828Z,86.57
2018-10-02T01:26:42.505Z,85.71
2018-10-02T01:29:12.153Z,85.53
2018-10-02T01:31:41.812Z,85.67
2018-10-02T01:34:11.891Z,86.31
2018-10-02T01:36:41.623Z,86.36
2018-10-02T01:39:11.337Z,86.18
2018-10-02T01:41:41.100Z,85.82
2018-10-02T01:44:11.167Z,85.68
2018-10-02T01:46:40.855Z,86.08
2018-10-02T01:49:10.492Z,86.25
2018-10-02T01:51:42.192Z,86.86
2018-10-02T01:54:11.796Z,86.60
2018-10-02T01:56:42.308Z,86.32
2018-10-02T01:59:11.924Z,86.30
2018-10-02T02:01:42.139Z,86.57
2018-10-02T02:04:11.777Z,86.34
2018-10-02T02:06:41.452Z,86.52
2018-10-02T02:09:12.439Z,85.86
2018-10-02T02:11:42.066Z,86.74
2018-10-02T02:14:13.997Z,86.89
2018-10-02T02:16:43.777Z,86.62
2018-10-02T02:19:13.418Z,86.49
2018-10-02T02:21:43.011Z,87.32
2018-10-02T02:24:12.649Z,86.66
2018-10-02T02:26:42.271Z,86.50
2018-10-02T02:29:14.781Z,86.67
2018-10-02T02:31:45.324Z,86.88
2018-10-02T02:34:14.953Z,87.50
2018-10-02T02:36:44.657Z,86.70
2018-10-02T02:39:14.633Z,87.24
2018-10-02T02:41:44.295Z,87.48
2018-10-02T02:44:13.973Z,87.13
2018-10-02T02:46:43.641Z,87.41
2018-10-02T02:49:20.159Z,88.06
2018-10-02T02:51:49.990Z,87.24
2018-10-02T02:54:42.037Z,87.76
2018-10-02T02:57:12.116Z,87.89
2018-10-02T02:59:41.701Z,88.05
2018-10-02T03:02:11.369Z,87.93
2018-10-02T03:04:41.034Z,88.05
2018-10-02T03:07:10.995Z,88.13
2018-10-02T03:09:40.617Z,89.33
2018-10-02T03:12:10.301Z,88.01
2018-10-02T03:14:39.912Z,88.08
2018-10-02T03:17:09.667Z,88.30
2018-10-02T03:19:39.312Z,88.72
2018-10-02T03:22:09.428Z,88.33
2018-10-02T03:24:39.172Z,88.02
2018-10-02T03:27:08.800Z,88.10
2018-10-02T03:29:38.554Z,88.24
2018-10-02T03:32:09.728Z,89.08
2018-10-02T03:34:39.680Z,88.14
2018-10-02T03:37:09.502Z,88.08
2018-10-02T03:39:39.486Z,88.07
2018-10-02T03:42:09.175Z,87.82
2018-10-02T03:44:38.810Z,87.41
2018-10-02T03:47:08.980Z,87.84
2018-10-02T03:49:38.668Z,87.81
2018-10-02T03:52:08.397Z,87.90
2018-10-02T03:54:38.604Z,88.48
2018-10-02T03:57:10.205Z,88.87
2018-10-02T03:59:41.260Z,88.54
2018-10-02T04:02:11.280Z,87.80
2018-10-02T04:04:40.945Z,88.28
2018-10-02T04:07:10.597Z,87.82
2018-10-02T04:09:40.580Z,87.44
2018-10-02T04:12:10.315Z,87.72
2018-10-02T04:14:39.970Z,86.99
2018-10-02T04:17:10.483Z,87.20
2018-10-02T04:19:40.148Z,87.55
2018-10-02T04:22:09.928Z,88.07
2018-10-02T04:24:39.540Z,88.41
2018-10-02T04:27:09.160Z,88.15
2018-10-02T04:29:38.838Z,86.22
2018-10-02T04:32:09.052Z,87.35
2018-10-02T04:34:38.673Z,87.32
2018-10-02T04:37:11.604Z,87.53
2018-10-02T04:39:41.252Z,87.12
2018-10-02T04:42:11.548Z,86.90
2018-10-02T04:44:42.384Z,87.43
2018-10-02T04:47:14.372Z,86.96
2018-10-02T04:49:44.012Z,86.62
2018-10-02T04:52:13.658Z,86.30
2018-10-02T04:55:17.573Z,86.54
2018-10-02T04:57:47.263Z,87.25
2018-10-02T05:00:17.713Z,86.78
2018-10-02T05:02:47.321Z,86.74
2018-10-02T05:05:18.895Z,86.37
2018-10-02T05:07:48.494Z,86.56
2018-10-02T05:10:19.213Z,87.24
2018-10-02T05:12:48.851Z,87.48
2018-10-02T05:15:18.491Z,87.42
2018-10-02T05:17:48.632Z,86.43
2018-10-02T05:20:18.354Z,86.69
2018-10-02T05:22:48.014Z,86.31
2018-10-02T05:25:19.993Z,86.76
2018-10-02T05:27:49.662Z,87.57
2018-10-02T05:30:20.724Z,87.22
2018-10-02T05:32:52.207Z,87.21
2018-10-02T05:35:22.372Z,87.44
2018-10-02T05:37:53.919Z,88.68
2018-10-02T05:40:24.421Z,88.24
2018-10-02T05:42:56.338Z,88.32
2018-10-02T05:45:26.513Z,88.62
2018-10-02T05:47:56.277Z,89.66
2018-10-02T05:50:30.465Z,89.76
2018-10-02T05:53:01.805Z,89.25
2018-10-02T05:55:32.397Z,89.59
2018-10-02T05:58:02.094Z,89.50
2018-10-02T06:00:32.114Z,88.99
2018-10-02T06:03:09.235Z,89.52
2018-10-02T06:05:41.295Z,89.16
2018-10-02T06:08:13.422Z,89.02
2018-10-02T06:10:43.805Z,88.55
2018-10-02T06:13:19.632Z,89.16
2018-10-02T06:15:49.312Z,88.13
2018-10-02T06:18:20.576Z,87.22
2018-10-02T06:20:52.408Z,86.48
2018-10-02T06:23:22.646Z,86.47
2018-10-02T06:25:53.266Z,86.40
2018-10-02T06:28:22.901Z,87.03
2018-10-02T06:30:53.129Z,86.98
2018-10-02T06:33:25.411Z,86.95
2018-10-02T06:35:56.737Z,87.62
2018-10-02T06:38:31.385Z,87.40
2018-10-02T06:41:03.846Z,87.84
2018-10-02T06:43:37.293Z,87.68
2018-10-02T06:46:08.307Z,87.92
2018-10-02T06:48:38.533Z,87.83
2018-10-02T06:51:09.049Z,87.86
2018-10-02T06:53:40.033Z,87.65
2018-10-02T06:56:10.733Z,88.01
2018-10-02T06:58:41.373Z,87.78
2018-10-02T07:01:12.431Z,86.23
2018-10-02T07:03:44.309Z,86.01
2018-10-02T07:06:15.964Z,84.93
2018-10-02T07:08:45.657Z,83.40
2018-10-02T07:11:16.792Z,82.67
2018-10-02T07:13:51.059Z,83.16
2018-10-02T07:16:22.339Z,80.61
2018-10-02T07:18:57.413Z,80.09
2018-10-02T07:21:28.833Z,77.39
2018-10-02T07:24:03.213Z,78.43
2018-10-02T07:26:34.139Z,77.54
2018-10-02T07:29:12.049Z,77.66
2018-10-02T07:31:46.346Z,75.78
2018-10-02T07:37:14.937Z,75.84
2018-10-02T07:39:45.417Z,75.89
2018-10-02T07:42:18.584Z,75.75
2018-10-02T07:44:51.943Z,75.24
2018-10-02T07:47:22.067Z,75.15
2018-10-02T07:52:36.306Z,72.55
2018-10-02T07:55:10.120Z,72.05
2018-10-02T07:57:47.206Z,72.15
2018-10-02T08:00:27.146Z,73.33
2018-10-02T08:03:04.235Z,72.63
2018-10-02T08:05:35.173Z,72.67
2018-10-02T08:08:07.417Z,71.65
2018-10-02T08:10:37.310Z,72.62
2018-10-02T08:13:13.075Z,73.02
2018-10-02T08:15:56.063Z,72.57
2018-10-02T08:18:32.417Z,72.43
2018-10-02T08:21:08.224Z,71.50
2018-10-02T08:23:47.324Z,71.17
2018-10-02T08:26:21.323Z,72.46
2018-10-02T08:28:53.370Z,71.85
2018-10-02T08:31:26.713Z,70.85
2018-10-02T08:34:07.504Z,70.81
2018-10-02T08:36:40.130Z,72.00
2018-10-02T08:39:16.512Z,70.96
2018-10-02T08:41:48.534Z,69.96
2018-10-02T08:44:18.645Z,70.77
2018-10-02T08:46:50.631Z,71.75
2018-10-02T08:49:26.928Z,71.94
2018-10-02T08:51:57.524Z,69.75
2018-10-02T08:54:32.917Z,69.09
2018-10-02T08:57:04.344Z,70.27
2018-10-02T08:59:40.978Z,70.74
2018-10-02T09:02:13.785Z,70.40
2018-10-02T09:04:44.235Z,69.98
2018-10-02T09:07:16.126Z,68.10
2018-10-02T09:09:46.450Z,68.69
2018-10-02T09:12:16.231Z,67.98
2018-10-02T09:14:49.046Z,67.37
2018-10-02T09:17:20.393Z,69.34
2018-10-02T09:19:55.194Z,67.82
2018-10-02T09:22:28.404Z,68.11
2018-10-02T09:24:59.589Z,68.20
2018-10-02T09:27:47.795Z,67.97
2018-10-02T09:30:26.871Z,66.60
2018-10-02T09:35:09.402Z,67.14
2018-10-02T09:37:50.705Z,66.96
2018-10-02T09:40:28.465Z,66.18
2018-10-02T09:43:03.383Z,65.97
2018-10-02T09:45:38.189Z,65.78
2018-10-02T09:48:13.693Z,65.60
2018-10-02T09:50:48.970Z,66.45
2018-10-02T09:53:19.287Z,65.76
2018-10-02T09:55:49.790Z,65.18
2018-10-02T09:58:22.522Z,66.05
2018-10-02T10:01:00.265Z,66.96
2018-10-02T10:03:30.783Z,66.06
2018-10-02T10:06:02.020Z,65.12
2018-10-02T10:08:37.869Z,65.18
2018-10-02T10:11:09.966Z,65.94
2018-10-02T10:13:41.387Z,65.76
2018-10-02T10:16:14.412Z,66.14
2018-10-02T10:18:45.178Z,65.81
2018-10-02T10:21:24.088Z,66.76
2018-10-02T10:23:58.402Z,67.38
2018-10-02T10:26:30.850Z,67.04
2018-10-02T10:29:06.660Z,67.31
2018-10-02T10:31:39.566Z,68.35
2018-10-02T10:34:12.169Z,68.08
2018-10-02T10:36:44.665Z,68.04
2018-10-02T10:39:18.636Z,68.30
2018-10-02T10:41:52.190Z,69.89
2018-10-02T10:44:27.744Z,69.88
2018-10-02T10:46:57.452Z,69.90
2018-10-02T10:49:30.752Z,69.76
2018-10-02T10:52:01.948Z,69.55
2018-10-02T10:54:36.870Z,69.09
2018-10-02T10:57:06.808Z,68.93
2018-10-02T10:59:42.961Z,69.74
2018-10-02T11:02:12.593Z,68.82
2018-10-02T11:04:44.435Z,68.76
2018-10-02T11:07:14.319Z,69.06
2018-10-02T11:09:46.292Z,69.33
2018-10-02T11:12:16.274Z,68.82
2018-10-02T11:14:53.438Z,71.31
2018-10-02T11:17:26.454Z,72.14
2018-10-02T11:19:58.734Z,73.04
2018-10-02T11:22:33.495Z,72.54
2018-10-02T11:25:06.036Z,73.21
2018-10-02T11:27:38.615Z,72.83
2018-10-02T11:30:08.850Z,74.47
2018-10-02T11:32:40.268Z,75.04
2018-10-02T11:35:10.369Z,77.18
2018-10-02T11:37:41.258Z,76.73
2018-10-02T11:40:12.909Z,78.13
2018-10-02T11:48:54.756Z,77.01
2018-10-02T11:51:26.213Z,78.56
2018-10-02T11:54:00.016Z,79.20
2018-10-02T11:59:16.463Z,79.17
2018-10-02T12:05:51.047Z,79.48
2018-10-02T12:08:45.926Z,79.15
2018-10-02T12:17:05.421Z,78.46
2018-10-02T12:19:41.165Z,78.53
2018-10-02T12:22:16.510Z,77.54
2018-10-02T12:25:03.246Z,78.18
2018-10-02T12:27:35.443Z,77.78
2018-10-02T12:30:21.181Z,77.46
2018-10-02T12:32:53.057Z,77.21
2018-10-02T12:35:25.966Z,78.93
2018-10-02T12:37:57.203Z,78.05
2018-10-02T12:40:31.242Z,78.59
2018-10-02T12:43:05.788Z,78.56
2018-10-02T12:45:37.847Z,77.95
2018-10-02T12:48:08.450Z,77.74
2018-10-02T12:50:38.424Z,76.61
2018-10-02T12:53:08.873Z,76.24
2018-10-02T12:55:40.672Z,76.85
2018-10-02T12:58:12.943Z,77.84
2018-10-02T13:00:45.444Z,76.58
2018-10-02T13:03:15.442Z,76.46
2018-10-02T13:06:13.310Z,76.37
2018-10-02T13:08:44.515Z,75.72
2018-10-02T13:11:14.375Z,75.47
2018-10-02T13:13:46.660Z,75.50
2018-10-02T13:16:20.266Z,76.90
2018-10-02T13:18:53.252Z,77.75
2018-10-02T13:21:24.905Z,76.80
2018-10-02T13:24:05.473Z,77.74
2018-10-02T13:26:36.780Z,77.22
2018-10-02T13:29:08.662Z,77.45
2018-10-02T13:31:41.668Z,76.16
2018-10-02T13:34:15.995Z,77.21
2018-10-02T13:36:48.373Z,76.29
2018-10-02T13:39:22.785Z,75.94
2018-10-02T13:41:57.212Z,76.60
2018-10-02T13:44:33.251Z,76.08
2018-10-02T13:47:07.171Z,75.86
2018-10-02T13:49:40.500Z,75.92
2018-10-02T13:52:12.112Z,74.89
2018-10-02T13:54:42.767Z,75.68
2018-10-02T13:57:15.897Z,76.76
2018-10-02T13:59:46.557Z,76.25
2018-10-02T14:02:17.848Z,76.99
2018-10-02T14:04:48.693Z,77.62
2018-10-02T14:07:19.409Z,76.91
2018-10-02T14:09:49.597Z,77.54
2018-10-02T14:12:20.075Z,77.32
2018-10-02T14:14:54.526Z,77.83
2018-10-02T14:17:27.770Z,79.26
2018-10-02T14:20:02.286Z,80.36
2018-10-02T14:22:40.541Z,81.78
2018-10-02T14:25:16.134Z,81.53
2018-10-02T14:27:50.585Z,81.29
2018-10-02T14:30:55.656Z,82.93
2018-10-02T14:33:30.652Z,81.37
2018-10-02T14:40:18.370Z,80.76
2018-10-02T14:42:50.394Z,80.70
2018-10-02T14:45:22.849Z,80.58
2018-10-02T14:47:58.038Z,80.90
2018-10-02T14:50:31.577Z,80.30
2018-10-02T14:53:06.216Z,80.08
2018-10-02T14:55:41.185Z,80.17
2018-10-02T14:58:19.585Z,81.33
2018-10-02T15:00:53.332Z,80.32
2018-10-02T15:03:25.101Z,80.77
2018-10-02T15:05:56.636Z,80.74
2018-10-02T15:08:29.392Z,79.47
2018-10-02T15:11:03.533Z,79.69
2018-10-02T15:13:35.408Z,79.98
2018-10-02T15:16:09.623Z,79.78
2018-10-02T15:18:40.883Z,80.15
2018-10-02T15:21:16.455Z,79.11
2018-10-02T15:23:50.765Z,79.10
2018-10-02T15:26:40.461Z,79.28
2018-10-02T15:29:14.174Z,78.82
2018-10-02T15:31:44.850Z,79.53
2018-10-02T15:34:15.672Z,79.01
2018-10-02T15:37:13.176Z,79.55
2018-10-02T15:39:46.346Z,79.21
2018-10-02T15:42:18.753Z,79.62
2018-10-02T15:44:57.354Z,79.34
2018-10-02T15:47:28.434Z,79.76
2018-10-02T15:49:59.926Z,79.68
2018-10-02T15:52:35.737Z,79.59
2018-10-02T15:55:06.520Z,80.00
2018-10-02T15:57:42.970Z,80.01
2018-10-02T16:00:15.714Z,79.28
2018-10-02T16:02:45.894Z,79.46
2018-10-02T16:05:18.276Z,80.68
2018-10-02T16:07:53.176Z,79.83
2018-10-02T16:10:29.072Z,80.85
2018-10-02T16:13:00.255Z,80.84
2018-10-02T16:15:45.310Z,80.64
2018-10-02T16:18:24.783Z,80.95
2018-10-02T16:20:59.554Z,82.41
2018-10-02T16:23:37.004Z,81.66
2018-10-02T16:26:13.546Z,82.91
2018-10-02T16:28:45.949Z,82.96
2018-10-02T16:31:18.561Z,83.08
2018-10-02T16:33:49.136Z,83.41
2018-10-02T16:36:20.461Z,82.94
2018-10-02T16:38:51.228Z,83.60
2018-10-02T16:41:24.953Z,83.29
2018-10-02T16:43:57.627Z,83.52
2018-10-02T16:46:37.428Z,82.88
2018-10-02T16:49:13.317Z,82.98
2018-10-02T16:51:56.049Z,83.48
2018-10-02T16:54:26.135Z,83.69
2018-10-02T16:56:59.599Z,83.51
2018-10-02T16:59:36.431Z,82.70
2018-10-02T17:02:11.735Z,83.45
2018-10-02T17:04:55.234Z,82.80
2018-10-02T17:07:26.286Z,83.20
2018-10-02T17:09:59.330Z,84.37
2018-10-02T17:15:31.377Z,87.20
2018-10-02T17:18:03.839Z,87.75
2018-10-02T17:20:37.329Z,87.53
2018-10-02T17:23:13.142Z,87.61
2018-10-02T17:25:50.063Z,88.27
2018-10-02T17:28:26.164Z,87.68
2018-10-02T17:31:00.904Z,89.40
2018-10-02T17:33:35.483Z,87.58
2018-10-02T17:36:11.828Z,87.64
2018-10-02T17:38:46.597Z,87.82
2018-10-02T17:41:58.374Z,87.79
2018-10-02T17:44:46.632Z,86.68
2018-10-02T17:48:23.539Z,86.99
2018-10-02T17:51:10.692Z,86.42
2018-10-02T17:53:47.189Z,87.01
2018-10-02T17:56:19.069Z,87.83
2018-10-02T17:58:56.074Z,87.80
2018-10-02T18:01:31.391Z,87.66
2018-10-02T18:04:14.251Z,87.02
2018-10-02T18:09:58.695Z,87.54
2018-10-02T18:12:35.007Z,87.46
2018-10-02T18:15:17.612Z,87.28
2018-10-02T18:18:08.494Z,87.57
2018-10-02T18:20:49.233Z,86.98
2018-10-02T18:23:25.850Z,86.94
2018-10-02T18:26:09.507Z,87.60
2018-10-02T18:28:47.426Z,88.20
2018-10-02T18:31:29.402Z,88.37
2018-10-02T18:37:01.838Z,88.94
2018-10-02T18:42:21.766Z,89.27
2018-10-02T18:44:53.950Z,89.22
2018-10-02T18:50:22.650Z,88.28
2018-10-02T18:53:02.107Z,87.74
2018-10-02T18:55:42.396Z,88.69
2018-10-02T18:58:22.937Z,88.18
2018-10-02T19:01:04.477Z,88.13
2018-10-02T19:06:41.264Z,87.61
2018-10-02T19:09:22.692Z,88.36
2018-10-02T19:12:02.208Z,87.62
2018-10-02T19:14:59.737Z,87.64
2018-10-02T19:17:42.837Z,87.82
2018-10-02T19:20:30.505Z,88.38
2018-10-02T19:23:05.459Z,87.65
2018-10-02T19:25:46.164Z,88.56
2018-10-02T19:28:23.195Z,88.42
2018-10-02T19:31:05.931Z,88.04
2018-10-02T19:33:53.564Z,88.65
2018-10-02T19:36:31.764Z,89.19
2018-10-02T19:39:35.006Z,90.00
2018-10-02T19:42:30.662Z,89.25
2018-10-02T19:45:14.213Z,90.06
2018-10-02T19:48:02.888Z,89.51
2018-10-02T19:50:34.331Z,90.73
2018-10-02T19:53:11.199Z,90.12
2018-10-02T19:55:47.404Z,90.38
2018-10-02T19:58:26.350Z,91.07
2018-10-02T20:01:00.152Z,91.16
2018-10-02T20:03:38.380Z,91.30
2018-10-02T20:06:19.469Z,91.47
2018-10-02T20:11:44.299Z,92.09
2018-10-02T20:14:29.336Z,91.98
2018-10-02T20:17:09.306Z,92.13
2018-10-02T20:19:41.328Z,92.25
2018-10-02T20:22:19.666Z,92.27
2018-10-02T20:24:51.393Z,92.47
2018-10-02T20:30:07.448Z,92.26
2018-10-02T20:32:40.666Z,92.52
2018-10-02T20:35:14.547Z,92.07
2018-10-02T20:37:49.030Z,92.25
2018-10-02T20:40:20.777Z,93.46
2018-10-02T20:43:14.713Z,92.66
2018-10-02T20:45:47.539Z,93.07
2018-10-02T20:48:29.784Z,93.31
2018-10-02T20:51:12.525Z,93.18
2018-10-02T20:53:56.259Z,93.23
2018-10-02T21:00:15.017Z,94.15
2018-10-02T21:05:30.445Z,94.44
2018-10-02T21:10:57.976Z,94.27
2018-10-02T21:13:33.387Z,93.97
2018-10-02T21:16:11.458Z,94.81
2018-10-02T21:18:43.834Z,94.14
2018-10-02T21:21:19.242Z,94.42
2018-10-02T21:26:37.328Z,94.33
2018-10-02T21:34:09.588Z,95.02
2018-10-02T21:36:46.437Z,94.55
2018-10-02T21:39:18.569Z,94.67
2018-10-02T21:41:49.325Z,94.87
2018-10-02T21:44:22.605Z,94.27
2018-10-02T21:47:02.006Z,94.49
2018-10-02T21:49:37.482Z,94.69
2018-10-02T21:52:34.845Z,94.69
2018-10-02T21:55:07.127Z,94.93
2018-10-02T21:57:42.425Z,94.86
2018-10-02T22:00:16.184Z,94.63
2018-10-02T22:02:49.967Z,95.04
2018-10-02T22:05:22.011Z,94.37
2018-10-02T22:07:52.306Z,95.04
2018-10-02T22:10:37.965Z,94.86
2018-10-02T22:13:16.402Z,94.85
2018-10-02T22:15:49.229Z,95.01
2018-10-02T22:18:25.395Z,95.29
2018-10-02T22:21:00.957Z,95.40
2018-10-02T22:23:35.258Z,95.44
2018-10-02T22:26:13.150Z,95.70
2018-10-02T22:28:45.020Z,95.38
2018-10-02T22:31:19.327Z,94.93
2018-10-02T22:33:58.956Z,95.19
2018-10-02T22:36:36.499Z,95.76
2018-10-02T22:39:12.254Z,95.85
2018-10-02T22:44:24.322Z,95.70
2018-10-02T22:46:55.217Z,95.57
2018-10-02T22:49:26.431Z,95.89
2018-10-02T22:52:04.502Z,96.54
2018-10-02T22:54:36.309Z,95.67
2018-10-02T22:57:07.817Z,96.04
2018-10-02T22:59:43.198Z,95.99
2018-10-02T23:02:20.274Z,95.55
2018-10-02T23:04:52.548Z,95.25
2018-10-02T23:07:23.655Z,95.49
2018-10-02T23:09:57.416Z,95.10
2018-10-02T23:12:30.298Z,95.14
2018-10-02T23:15:01.681Z,95.63
2018-10-02T23:17:33.380Z,95.95
2018-10-02T23:22:41.614Z,95.77
2018-10-02T23:25:13.411Z,95.98
2018-10-02T23:27:44.309Z,94.91
2018-10-02T23:33:33.380Z,94.94
2018-10-02T23:36:04.560Z,95.81
2018-10-02T23:38:37.450Z,96.06
2018-10-02T23:41:07.969Z,95.81
2018-10-02T23:43:37.947Z,96.03
2018-10-02T23:46:40.552Z,95.65
2018-10-02T23:52:25.424Z,95.74
2018-10-02T23:54:56.193Z,95.19
2018-10-02T23:57:26.787Z,94.86
2018-10-02T23:59:57.501Z,95.36
